Tucumcari ASC Data

Air Temperature RH Wind Speed Wind Direction Precipitation Solar Radiation Soil Temperature (10cm)
Date Time Max Min Mean Max Min Mean Max Mean Mean Total Total Max Min Mean
US/Mountain F F F % % % MPH MPH deg. in. MJ/m^2 F F F
2020-05-30 01:00:00 73.72 71.51 72.32 34.86 32.2 33.71 16.53 9.9 185.3 0.0 0.0 85.06 83.59 84.31
2020-05-30 02:00:00 72.25 70.23 71.33 36.3 34.32 35.23 21.18 12.33 187.5 0.0 0.0 83.59 82.22 82.89
2020-05-30 03:00:00 70.54 67.6 69.08 39.45 35.82 37.53 15.46 9.63 190.7 0.0 0.0 82.22 80.94 81.57
2020-05-30 04:00:00 67.6 66.25 66.97 41.05 39.48 39.99 11.89 7.39 206.6 0.0 0.0 80.94 79.65 80.28
2020-05-30 05:00:00 66.45 65.03 65.57 44.02 40.81 42.74 10.99 6.53 197.8 0.0 0.0 79.65 78.44 79.02
2020-05-30 06:00:00 65.34 64.06 64.49 46.92 43.88 45.76 10.63 6.23 191.7 0.0 0.01879781 78.44 77.38 77.88
2020-05-30 07:00:00 67.62 64.54 66.27 47.16 44.29 45.97 16.53 8.44 194.0 0.0 0.4428721 77.38 76.77 76.96
2020-05-30 08:00:00 71.64 67.62 69.58 44.46 36.16 40.37 22.97 11.83 198.3 0.0 1.116718 77.81 76.78 77.2
2020-05-30 09:00:00 75.67 71.64 73.92 36.2 32.47 34.14 23.33 14.7 203.6 0.0 1.851967 80.26 77.81 78.87
2020-05-30 10:00:00 79.63 75.29 77.49 33.01 29.09 31.02 22.62 15.17 197.3 0.0 2.543955 83.82 80.26 82.0
2020-05-30 11:00:00 84.52 78.84 81.59 29.87 24.68 27.22 22.62 14.72 194.6 0.0 3.108432 87.78 83.82 85.78
2020-05-30 12:00:00 87.64 83.41 84.85 25.33 21.75 23.99 22.8 15.63 190.8 0.0 3.511031 91.81 87.8 89.83
2020-05-30 13:00:00 89.53 86.47 88.16 22.12 19.64 20.77 20.47 14.32 185.0 0.0 3.697623 95.54 91.83 93.72
2020-05-30 14:00:00 91.0 88.0 89.71 20.83 18.78 19.72 20.29 13.2 194.8 0.0 3.64475 98.26 95.58 97.09
2020-05-30 15:00:00 92.39 89.64 90.93 19.57 17.99 18.78 21.01 13.68 191.5 0.0 3.341099 99.37 98.26 98.64
2020-05-30 16:00:00 92.25 89.92 91.04 18.98 17.62 18.33 22.26 14.22 193.7 0.0 2.921381 100.35 99.34 100.02
2020-05-30 17:00:00 92.07 89.44 91.04 19.08 17.58 18.19 24.23 13.97 185.7 0.0 2.320612 100.27 99.16 99.73
2020-05-30 18:00:00 91.0 88.61 90.09 19.6 18.03 18.73 20.11 12.78 190.0 0.0 1.423071 99.19 97.97 98.65
2020-05-30 19:00:00 88.74 86.4 87.04 20.83 19.5 20.32 19.57 13.05 178.9 0.0 0.4058531 98.01 95.9 97.03
2020-05-30 20:00:00 86.52 83.35 85.19 22.3 20.59 21.41 18.86 12.53 162.4 0.0 0.2139834 95.9 93.61 94.73
2020-05-30 21:00:00 83.48 80.06 81.55 25.37 22.23 23.82 16.71 10.9 154.8 0.0 1.75e-06 93.61 91.36 92.52
2020-05-30 22:00:00 80.06 77.36 78.66 28.0 25.3 26.75 15.28 10.44 153.1 0.0 0.0 91.36 89.24 90.28
2020-05-30 23:00:00 77.54 75.18 76.14 30.67 27.96 29.52 15.64 8.7 152.2 0.0 0.0 89.26 87.37 88.29
2020-05-31 00:00:00 75.31 72.37 73.8 35.51 30.6 33.2 16.17 11.26 156.0 0.0 0.0 87.37 85.64 86.49

Data is courtesy of the NM Climate Center. DO NOT USE IN LEGAL PROCEEDINGS